createdAt,value
2023-02-21T00:01:48.600Z,75.78
2023-02-21T00:03:38.944Z,75.71
2023-02-21T00:05:29.211Z,75.07
2023-02-21T00:07:19.394Z,75.35
2023-02-21T00:09:10.884Z,75.55
2023-02-21T00:11:01.280Z,75.57
2023-02-21T00:12:51.259Z,76.08
2023-02-21T00:14:41.542Z,76.12
2023-02-21T00:16:33.296Z,75.79
2023-02-21T00:18:23.536Z,75.62
2023-02-21T00:20:13.385Z,75.60
2023-02-21T00:22:03.382Z,75.68
2023-02-21T00:23:53.575Z,75.55
2023-02-21T00:25:45.068Z,75.91
2023-02-21T00:27:35.171Z,75.33
2023-02-21T00:29:25.917Z,75.46
2023-02-21T00:31:16.560Z,74.89
2023-02-21T00:33:07.386Z,75.59
2023-02-21T00:34:57.507Z,75.26
2023-02-21T00:36:47.516Z,75.29
2023-02-21T00:38:37.944Z,75.52
2023-02-21T00:40:30.047Z,75.22
2023-02-21T00:42:21.535Z,75.07
2023-02-21T00:44:11.881Z,75.26
2023-02-21T00:46:02.550Z,75.02
2023-02-21T00:47:52.784Z,75.19
2023-02-21T00:49:42.971Z,75.18
2023-02-21T00:51:33.313Z,75.12
2023-02-21T00:53:23.252Z,75.04
2023-02-21T00:55:13.285Z,75.25
2023-02-21T00:57:03.283Z,75.39
2023-02-21T00:58:54.661Z,75.23
2023-02-21T01:00:44.606Z,75.09
2023-02-21T01:02:34.981Z,74.74
2023-02-21T01:04:25.115Z,74.37
2023-02-21T01:06:15.884Z,75.40
2023-02-21T01:08:06.474Z,74.73
2023-02-21T01:09:56.592Z,75.04
2023-02-21T01:11:47.145Z,75.15
2023-02-21T01:13:37.295Z,75.38
2023-02-21T01:15:28.991Z,75.18
2023-02-21T01:17:19.213Z,75.23
2023-02-21T01:19:09.055Z,75.64
2023-02-21T01:20:59.045Z,75.59
2023-02-21T01:22:49.443Z,75.22
2023-02-21T01:24:39.807Z,75.25
2023-02-21T01:26:29.766Z,75.17
2023-02-21T01:28:21.527Z,75.37
2023-02-21T01:30:11.888Z,75.52
2023-02-21T01:32:03.541Z,75.40
2023-02-21T01:33:57.582Z,75.63
2023-02-21T01:35:47.692Z,75.22
2023-02-21T01:37:37.776Z,75.49
2023-02-21T01:39:28.385Z,75.23
2023-02-21T01:41:18.332Z,75.28
2023-02-21T01:43:08.517Z,75.40
2023-02-21T01:44:59.475Z,75.65
2023-02-21T01:46:49.329Z,75.48
2023-02-21T01:48:42.188Z,75.46
2023-02-21T01:50:35.842Z,75.54
2023-02-21T01:52:26.060Z,75.47
2023-02-21T01:54:16.426Z,75.59
2023-02-21T01:56:07.881Z,75.62
2023-02-21T01:57:58.340Z,75.49
2023-02-21T01:59:50.099Z,75.28
2023-02-21T02:01:44.709Z,75.25
2023-02-21T02:03:35.843Z,75.16
2023-02-21T02:05:29.024Z,75.37
2023-02-21T02:07:19.192Z,75.37
2023-02-21T02:09:09.680Z,75.45
2023-02-21T02:11:00.552Z,75.18
2023-02-21T02:12:49.946Z,75.26
2023-02-21T02:14:37.293Z,74.79
2023-02-21T02:16:12.887Z,75.21
2023-02-21T02:17:53.197Z,74.95
2023-02-21T02:19:38.794Z,74.48
2023-02-21T02:21:28.247Z,74.56
2023-02-21T02:23:10.949Z,74.63
2023-02-21T02:24:53.285Z,74.31
2023-02-21T02:26:36.074Z,74.40
2023-02-21T02:28:25.759Z,74.69
2023-02-21T02:30:25.969Z,75.13
2023-02-21T02:32:09.512Z,75.20
2023-02-21T02:33:50.459Z,74.53
2023-02-21T02:35:27.537Z,74.71
2023-02-21T02:37:04.513Z,74.28
2023-02-21T02:38:38.541Z,74.86
2023-02-21T02:40:15.860Z,74.71
2023-02-21T02:41:51.446Z,75.08
2023-02-21T02:43:30.221Z,74.63
2023-02-21T02:45:06.146Z,74.83
2023-02-21T02:46:39.985Z,74.65
2023-02-21T02:48:14.540Z,74.38
2023-02-21T02:49:46.634Z,74.95
2023-02-21T02:51:20.520Z,74.63
2023-02-21T02:52:53.230Z,74.46
2023-02-21T02:54:26.665Z,74.85
2023-02-21T02:56:00.609Z,75.06
2023-02-21T02:57:40.985Z,74.75
2023-02-21T02:59:16.576Z,75.29
2023-02-21T03:00:51.923Z,75.27
2023-02-21T03:02:33.898Z,75.41
2023-02-21T03:04:19.524Z,75.25
2023-02-21T03:06:02.676Z,75.60
2023-02-21T03:07:42.586Z,75.96
2023-02-21T03:09:19.226Z,75.94
2023-02-21T03:10:54.779Z,76.06
2023-02-21T03:12:33.076Z,75.90
2023-02-21T03:14:07.664Z,76.05
2023-02-21T03:15:44.494Z,75.95
2023-02-21T03:17:18.794Z,76.04
2023-02-21T03:18:54.985Z,75.92
2023-02-21T03:20:27.870Z,76.00
2023-02-21T03:22:01.085Z,75.53
2023-02-21T03:23:35.237Z,75.54
2023-02-21T03:25:07.931Z,75.65
2023-02-21T03:26:42.587Z,75.30
2023-02-21T03:28:50.352Z,75.26
2023-02-21T03:30:23.735Z,75.40
2023-02-21T03:31:59.704Z,76.00
2023-02-21T03:33:31.824Z,75.43
2023-02-21T03:35:03.780Z,75.52
2023-02-21T03:36:37.142Z,75.19
2023-02-21T03:38:10.065Z,75.85
2023-02-21T03:39:43.007Z,75.63
2023-02-21T03:41:15.952Z,75.22
2023-02-21T03:42:47.836Z,75.61
2023-02-21T03:44:21.970Z,74.80
2023-02-21T03:45:53.763Z,74.81
2023-02-21T03:47:25.472Z,75.14
2023-02-21T03:48:57.246Z,75.06
2023-02-21T03:50:32.545Z,75.68
2023-02-21T03:52:05.109Z,75.60
2023-02-21T03:53:36.820Z,76.27
2023-02-21T03:55:10.258Z,76.27
2023-02-21T03:56:42.548Z,76.64
2023-02-21T03:58:40.173Z,76.89
2023-02-21T04:00:13.427Z,76.57
2023-02-21T04:01:47.571Z,76.52
2023-02-21T04:03:21.053Z,76.84
2023-02-21T04:05:00.421Z,76.56
2023-02-21T04:06:31.995Z,77.03
2023-02-21T04:08:04.412Z,76.84
2023-02-21T04:09:38.947Z,77.13
2023-02-21T04:11:16.595Z,76.80
2023-02-21T04:12:48.777Z,76.69
2023-02-21T04:14:21.579Z,76.75
2023-02-21T04:15:53.715Z,76.79
2023-02-21T04:17:26.854Z,76.55
2023-02-21T04:18:59.510Z,76.83
2023-02-21T04:20:31.166Z,76.73
2023-02-21T04:22:04.346Z,77.13
2023-02-21T04:23:36.601Z,77.08
2023-02-21T04:25:09.677Z,76.86
2023-02-21T04:26:48.377Z,76.69
2023-02-21T04:28:20.291Z,76.96
2023-02-21T04:29:53.044Z,77.38
2023-02-21T04:31:24.696Z,77.34
2023-02-21T04:32:57.290Z,76.80
2023-02-21T04:34:28.987Z,76.78
2023-02-21T04:36:00.584Z,76.92
2023-02-21T04:37:45.311Z,77.06
2023-02-21T04:39:17.960Z,76.76
2023-02-21T04:40:49.592Z,76.96
2023-02-21T04:42:22.595Z,76.73
2023-02-21T04:43:54.209Z,76.78
2023-02-21T04:45:26.008Z,76.95
2023-02-21T04:46:58.953Z,76.97
2023-02-21T04:48:30.491Z,76.71
2023-02-21T04:50:02.098Z,76.97
2023-02-21T04:51:33.793Z,77.04
2023-02-21T04:53:05.408Z,77.32
2023-02-21T04:54:36.936Z,77.80
2023-02-21T04:56:08.553Z,77.96
2023-02-21T04:57:41.518Z,77.90
2023-02-21T04:59:13.071Z,77.58
2023-02-21T05:00:44.756Z,77.74
2023-02-21T05:02:16.394Z,77.58
2023-02-21T05:03:48.329Z,77.93
2023-02-21T05:05:19.899Z,77.88
2023-02-21T05:06:51.485Z,77.80
2023-02-21T05:08:26.779Z,77.63
2023-02-21T05:09:59.584Z,78.07
2023-02-21T05:11:33.133Z,78.01
2023-02-21T05:13:06.026Z,78.03
2023-02-21T05:14:38.137Z,77.61
2023-02-21T05:16:09.766Z,77.02
2023-02-21T05:17:41.612Z,76.92
2023-02-21T05:19:13.148Z,77.26
2023-02-21T05:20:44.693Z,77.69
2023-02-21T05:22:20.383Z,77.87
2023-02-21T05:23:57.876Z,78.25
2023-02-21T05:25:29.476Z,78.61
2023-02-21T05:27:01.058Z,78.78
2023-02-21T05:28:34.196Z,78.29
2023-02-21T05:30:06.324Z,78.60
2023-02-21T05:31:37.910Z,78.43
2023-02-21T05:33:09.471Z,78.08
2023-02-21T05:34:44.435Z,78.02
2023-02-21T05:36:17.794Z,78.06
2023-02-21T05:37:49.387Z,78.15
2023-02-21T05:39:21.042Z,78.10
2023-02-21T05:40:52.755Z,78.04
2023-02-21T05:42:24.304Z,78.29
2023-02-21T05:43:57.287Z,78.41
2023-02-21T05:45:28.838Z,78.40
2023-02-21T05:47:00.536Z,78.54
2023-02-21T05:48:32.108Z,78.42
2023-02-21T05:50:03.951Z,78.43
2023-02-21T05:51:37.064Z,78.31
2023-02-21T05:53:10.319Z,78.24
2023-02-21T05:54:42.192Z,78.22
2023-02-21T05:56:14.132Z,78.17
2023-02-21T05:57:45.749Z,78.42
2023-02-21T05:59:20.220Z,78.08
2023-02-21T06:00:52.484Z,77.84
2023-02-21T06:02:24.135Z,78.04
2023-02-21T06:03:55.669Z,77.96
2023-02-21T06:05:27.339Z,78.41
2023-02-21T06:06:58.907Z,78.39
2023-02-21T06:08:30.461Z,78.37
2023-02-21T06:10:02.093Z,78.48
2023-02-21T06:11:34.748Z,78.28
2023-02-21T06:13:06.259Z,78.27
2023-02-21T06:14:39.291Z,77.83
2023-02-21T06:16:10.972Z,78.32
2023-02-21T06:17:42.683Z,78.10
2023-02-21T06:19:16.489Z,78.76
2023-02-21T06:20:50.116Z,78.81
2023-02-21T06:22:21.708Z,79.16
2023-02-21T06:23:53.501Z,78.87
2023-02-21T06:25:25.066Z,79.43
2023-02-21T06:26:57.239Z,79.28
2023-02-21T06:28:29.456Z,79.47
2023-02-21T06:30:02.710Z,79.22
2023-02-21T06:31:36.296Z,79.42
2023-02-21T06:33:07.972Z,79.47
2023-02-21T06:34:39.552Z,79.64
2023-02-21T06:36:12.637Z,79.69
2023-02-21T06:37:44.229Z,80.37
2023-02-21T06:39:15.728Z,80.08
2023-02-21T06:40:47.292Z,80.39
2023-02-21T06:42:19.472Z,80.34
2023-02-21T06:43:51.010Z,80.55
2023-02-21T06:45:23.890Z,81.03
2023-02-21T06:46:55.431Z,80.65
2023-02-21T06:48:27.143Z,80.53
2023-02-21T06:49:58.743Z,80.60
2023-02-21T06:51:33.932Z,81.01
2023-02-21T06:53:05.538Z,81.05
2023-02-21T06:54:37.248Z,81.13
2023-02-21T06:56:09.110Z,81.01
2023-02-21T06:57:41.571Z,80.50
2023-02-21T06:59:13.524Z,80.47
2023-02-21T07:00:46.562Z,80.10
2023-02-21T07:02:19.589Z,79.91
2023-02-21T07:03:51.248Z,79.79
2023-02-21T07:05:22.861Z,80.31
2023-02-21T07:06:54.538Z,80.45
2023-02-21T07:08:26.565Z,79.91
2023-02-21T07:09:58.329Z,79.89
2023-02-21T07:11:31.087Z,79.36
2023-02-21T07:13:02.670Z,79.17
2023-02-21T07:14:34.239Z,78.92
2023-02-21T07:16:07.418Z,79.12
2023-02-21T07:17:38.985Z,79.61
2023-02-21T07:19:15.738Z,79.49
2023-02-21T07:20:47.540Z,79.77
2023-02-21T07:22:25.858Z,79.98
2023-02-21T07:23:57.457Z,80.05
2023-02-21T07:25:32.863Z,79.73
2023-02-21T07:27:04.672Z,79.82
2023-02-21T07:28:36.288Z,79.74
2023-02-21T07:30:08.401Z,79.62
2023-02-21T07:31:41.493Z,79.98
2023-02-21T07:33:13.139Z,79.25
2023-02-21T07:34:44.768Z,79.28
2023-02-21T07:36:16.818Z,79.31
2023-02-21T07:37:48.382Z,78.97
2023-02-21T07:39:19.909Z,79.03
2023-02-21T07:40:54.046Z,78.53
2023-02-21T07:42:25.683Z,78.55
2023-02-21T07:43:57.306Z,78.64
2023-02-21T07:45:28.801Z,78.60
2023-02-21T07:47:02.186Z,78.18
2023-02-21T07:48:34.073Z,77.97
2023-02-21T07:50:06.460Z,77.68
2023-02-21T07:51:38.050Z,78.06
2023-02-21T07:53:11.279Z,78.52
2023-02-21T07:54:42.933Z,78.95
2023-02-21T07:56:14.447Z,78.80
2023-02-21T07:57:46.340Z,78.53
2023-02-21T07:59:17.969Z,78.52
2023-02-21T08:00:49.616Z,77.95
2023-02-21T08:02:22.998Z,78.23
2023-02-21T08:03:54.636Z,78.17
2023-02-21T08:05:26.186Z,78.39
2023-02-21T08:06:59.249Z,78.19
2023-02-21T08:08:30.817Z,78.30
2023-02-21T08:10:02.354Z,78.27
2023-02-21T08:11:36.660Z,78.20
2023-02-21T08:13:08.227Z,78.01
2023-02-21T08:14:39.795Z,78.25
2023-02-21T08:16:11.339Z,78.24
2023-02-21T08:17:44.728Z,77.80
2023-02-21T08:19:16.333Z,77.66
2023-02-21T08:20:48.026Z,77.69
2023-02-21T08:22:19.791Z,77.80
2023-02-21T08:23:54.348Z,78.02
2023-02-21T08:25:25.879Z,77.63
2023-02-21T08:26:57.442Z,77.88
2023-02-21T08:28:28.918Z,78.03
2023-02-21T08:30:00.519Z,77.77
2023-02-21T08:31:34.462Z,77.87
2023-02-21T08:33:07.463Z,77.71
2023-02-21T08:34:39.067Z,77.81
2023-02-21T08:36:10.733Z,77.95
2023-02-21T08:37:45.524Z,77.64
2023-02-21T08:39:17.128Z,78.25
2023-02-21T08:40:48.846Z,78.10
2023-02-21T08:42:22.085Z,78.45
2023-02-21T08:43:53.618Z,78.48
2023-02-21T08:45:26.105Z,77.61
2023-02-21T08:46:58.247Z,77.77
2023-02-21T08:48:31.385Z,77.83
2023-02-21T08:50:03.268Z,78.12
2023-02-21T08:51:34.964Z,78.19
2023-02-21T08:53:06.638Z,77.31
2023-02-21T08:54:38.224Z,76.40
2023-02-21T08:56:11.160Z,77.01
2023-02-21T08:57:42.714Z,77.50
2023-02-21T08:59:14.229Z,77.76
2023-02-21T09:00:45.863Z,77.58
2023-02-21T09:02:18.286Z,77.18
2023-02-21T09:03:51.262Z,77.74
2023-02-21T09:05:27.117Z,77.15
2023-02-21T09:06:58.756Z,77.31
2023-02-21T09:08:31.021Z,76.72
2023-02-21T09:10:02.552Z,76.38
2023-02-21T09:11:34.107Z,76.48
2023-02-21T09:13:05.648Z,76.60
2023-02-21T09:14:37.876Z,76.46
2023-02-21T09:16:10.495Z,75.57
2023-02-21T09:17:42.147Z,75.33
2023-02-21T09:19:15.425Z,74.83
2023-02-21T09:20:52.512Z,75.16
2023-02-21T09:22:24.351Z,75.98
2023-02-21T09:23:56.724Z,76.32
2023-02-21T09:25:28.418Z,76.56
2023-02-21T09:27:00.054Z,76.41
2023-02-21T09:28:32.258Z,76.69
2023-02-21T09:30:05.191Z,75.69
2023-02-21T09:31:36.869Z,75.64
2023-02-21T09:33:09.116Z,75.54
2023-02-21T09:34:42.172Z,75.97
2023-02-21T09:36:13.895Z,76.03
2023-02-21T09:37:45.995Z,75.74
2023-02-21T09:39:18.072Z,75.72
2023-02-21T09:40:50.606Z,76.10
2023-02-21T09:42:24.256Z,75.21
2023-02-21T09:43:55.958Z,75.20
2023-02-21T09:45:30.322Z,74.79
2023-02-21T09:47:04.015Z,75.25
2023-02-21T09:48:35.577Z,74.88
2023-02-21T09:50:13.343Z,74.87
2023-02-21T09:51:45.272Z,74.70
2023-02-21T09:53:19.425Z,73.96
2023-02-21T09:54:56.310Z,74.04
2023-02-21T09:56:28.720Z,75.12
2023-02-21T09:58:00.943Z,74.95
2023-02-21T09:59:33.324Z,74.81
2023-02-21T10:01:07.680Z,74.21
2023-02-21T10:02:43.406Z,74.45
2023-02-21T10:04:21.791Z,74.53
2023-02-21T10:05:59.049Z,74.70
2023-02-21T10:07:36.057Z,74.65
2023-02-21T10:09:16.322Z,75.19
2023-02-21T10:10:49.733Z,74.63
2023-02-21T10:12:27.879Z,74.55
2023-02-21T10:14:02.926Z,73.41
2023-02-21T10:15:38.639Z,73.29
2023-02-21T10:17:13.164Z,73.08
2023-02-21T10:18:48.526Z,72.86
2023-02-21T10:20:22.881Z,73.89
2023-02-21T10:21:58.718Z,73.94
2023-02-21T10:23:33.851Z,73.85
2023-02-21T10:25:20.875Z,73.85
2023-02-21T10:26:54.067Z,73.52
2023-02-21T10:28:26.305Z,73.29
2023-02-21T10:30:01.335Z,73.96
2023-02-21T10:31:35.356Z,74.11
2023-02-21T10:33:07.273Z,73.63
2023-02-21T10:34:39.080Z,73.69
2023-02-21T10:36:11.892Z,74.08
2023-02-21T10:37:47.020Z,74.73
2023-02-21T10:39:20.692Z,74.22
2023-02-21T10:40:53.361Z,74.37
2023-02-21T10:42:28.864Z,73.09
2023-02-21T10:44:03.900Z,73.79
2023-02-21T10:45:38.448Z,73.09
2023-02-21T10:47:15.210Z,72.71
2023-02-21T10:48:48.171Z,72.91
2023-02-21T10:50:34.629Z,73.20
2023-02-21T10:52:08.998Z,73.12
2023-02-21T10:53:42.891Z,73.47
2023-02-21T10:55:31.405Z,74.10
2023-02-21T10:57:06.471Z,74.17
2023-02-21T10:58:38.364Z,74.16
2023-02-21T11:00:19.560Z,74.34
2023-02-21T11:01:52.273Z,74.18
2023-02-21T11:03:27.552Z,74.28
2023-02-21T11:05:08.585Z,73.39
2023-02-21T11:06:44.803Z,73.58
2023-02-21T11:08:32.111Z,73.74
2023-02-21T11:10:24.549Z,73.66
2023-02-21T11:12:00.272Z,73.19
2023-02-21T11:13:32.637Z,73.50
2023-02-21T11:15:16.684Z,73.46
2023-02-21T11:17:03.334Z,72.70
2023-02-21T11:18:34.962Z,72.79
2023-02-21T11:20:17.577Z,72.50
2023-02-21T11:21:54.938Z,73.34
2023-02-21T11:23:28.160Z,72.50
2023-02-21T11:25:01.369Z,72.39
2023-02-21T11:26:38.635Z,72.25
2023-02-21T11:28:18.598Z,71.97
2023-02-21T11:29:51.419Z,70.99
2023-02-21T11:31:27.284Z,70.83
2023-02-21T11:33:00.884Z,70.24
2023-02-21T11:34:32.547Z,70.06
2023-02-21T11:36:09.160Z,70.21
2023-02-21T11:37:48.332Z,70.00
2023-02-21T11:39:27.675Z,70.84
2023-02-21T11:41:00.511Z,70.43
2023-02-21T11:42:34.283Z,71.04
2023-02-21T11:44:20.711Z,71.40
2023-02-21T11:46:00.073Z,71.16
2023-02-21T11:47:35.238Z,71.17
2023-02-21T11:49:11.358Z,71.23
2023-02-21T11:50:49.733Z,70.25
2023-02-21T11:52:25.011Z,70.26
2023-02-21T11:53:56.705Z,69.92
2023-02-21T11:55:28.352Z,69.37
2023-02-21T11:57:04.410Z,69.62
2023-02-21T11:58:42.520Z,70.24
2023-02-21T12:00:19.233Z,70.81
2023-02-21T12:01:55.729Z,69.94
2023-02-21T12:03:47.167Z,70.46
2023-02-21T12:05:27.610Z,69.81
2023-02-21T12:07:05.684Z,70.21
2023-02-21T12:08:43.793Z,71.41
2023-02-21T12:10:25.942Z,71.41
2023-02-21T12:12:04.586Z,71.79
2023-02-21T12:13:42.221Z,71.87
2023-02-21T12:15:19.381Z,71.74
2023-02-21T12:16:59.785Z,71.28
2023-02-21T12:18:41.689Z,71.27
2023-02-21T12:20:29.678Z,70.17
2023-02-21T12:22:03.585Z,69.60
2023-02-21T12:23:41.159Z,70.15
2023-02-21T12:25:19.788Z,69.48
2023-02-21T12:26:53.525Z,70.53
2023-02-21T12:28:30.920Z,70.16
2023-02-21T12:30:11.913Z,71.35
2023-02-21T12:31:49.648Z,71.48
2023-02-21T12:33:43.744Z,71.10
2023-02-21T12:35:42.200Z,71.02
2023-02-21T12:37:26.576Z,71.29
2023-02-21T12:39:29.013Z,70.84
2023-02-21T12:41:22.494Z,70.75
2023-02-21T12:43:11.567Z,71.05
2023-02-21T12:45:14.346Z,71.17
2023-02-21T12:47:04.698Z,70.40
2023-02-21T12:49:19.729Z,69.96
2023-02-21T12:51:16.278Z,69.90
2023-02-21T12:53:15.997Z,69.80
2023-02-21T12:54:52.344Z,69.98
2023-02-21T13:18:04.868Z,69.00
2023-02-21T13:20:25.892Z,69.78
2023-02-21T13:22:39.210Z,70.03
2023-02-21T13:24:59.694Z,71.06
2023-02-21T13:38:12.456Z,70.56
2023-02-21T13:45:33.607Z,68.63
2023-02-21T13:55:34.418Z,68.70
2023-02-21T13:57:28.708Z,69.73
2023-02-21T13:59:30.252Z,68.48
2023-02-21T14:01:31.963Z,68.30
2023-02-21T14:03:24.890Z,68.67
2023-02-21T14:05:06.943Z,69.08
2023-02-21T14:06:38.639Z,68.98
2023-02-21T14:08:12.495Z,68.94
2023-02-21T14:09:46.350Z,68.51
2023-02-21T14:11:20.805Z,68.18
2023-02-21T14:12:56.419Z,68.60
2023-02-21T14:14:29.978Z,69.00
2023-02-21T14:16:09.228Z,68.93
2023-02-21T14:17:40.865Z,68.46
2023-02-21T14:19:19.627Z,68.55
2023-02-21T14:20:52.852Z,68.59
2023-02-21T14:22:26.243Z,68.87
2023-02-21T14:23:59.445Z,69.10
2023-02-21T14:25:33.425Z,68.46
2023-02-21T14:27:07.428Z,68.16
2023-02-21T14:29:00.887Z,69.00
2023-02-21T14:30:33.648Z,67.98
2023-02-21T14:32:25.254Z,68.61
2023-02-21T14:33:59.863Z,68.85
2023-02-21T14:35:35.334Z,68.41
2023-02-21T14:37:13.038Z,68.07
2023-02-21T14:38:44.745Z,68.07
2023-02-21T14:40:21.258Z,67.51
2023-02-21T14:42:11.655Z,67.71
2023-02-21T14:44:00.798Z,67.37
2023-02-21T14:45:44.664Z,67.20
2023-02-21T14:47:34.226Z,67.63
2023-02-21T14:49:24.424Z,67.99
2023-02-21T14:51:33.363Z,67.39
2023-02-21T14:53:23.433Z,66.78
2023-02-21T14:55:10.067Z,66.66
2023-02-21T14:56:55.228Z,67.82
2023-02-21T14:58:47.839Z,67.75
2023-02-21T15:00:25.454Z,67.39
2023-02-21T15:02:01.425Z,67.91
2023-02-21T15:03:36.013Z,68.40
2023-02-21T15:05:12.603Z,67.61
2023-02-21T15:06:53.227Z,67.06
2023-02-21T15:08:25.826Z,66.63
2023-02-21T15:10:14.724Z,66.37
2023-02-21T15:11:47.308Z,66.09
2023-02-21T15:13:23.572Z,66.43
2023-02-21T15:14:55.356Z,66.86
2023-02-21T15:16:31.478Z,66.42
2023-02-21T15:18:04.846Z,66.36
2023-02-21T15:19:36.571Z,66.16
2023-02-21T15:21:15.475Z,66.78
2023-02-21T15:22:54.810Z,65.68
2023-02-21T15:24:26.423Z,66.11
2023-02-21T15:25:59.743Z,66.48
2023-02-21T15:27:31.358Z,65.74
2023-02-21T15:29:04.122Z,65.43
2023-02-21T15:30:37.808Z,65.10
2023-02-21T15:32:11.853Z,65.33
2023-02-21T15:33:44.012Z,65.50
2023-02-21T15:35:20.345Z,66.28
2023-02-21T15:36:58.017Z,66.21
2023-02-21T15:38:32.975Z,66.06
2023-02-21T15:40:12.019Z,66.27
2023-02-21T15:41:45.954Z,66.87
2023-02-21T15:43:23.879Z,66.98
2023-02-21T15:44:58.278Z,67.90
2023-02-21T15:46:32.913Z,67.77
2023-02-21T15:48:04.788Z,66.88
2023-02-21T15:49:38.210Z,66.55
2023-02-21T15:51:10.353Z,67.10
2023-02-21T15:52:42.747Z,66.68
2023-02-21T15:54:29.957Z,67.68
2023-02-21T15:56:28.478Z,66.60
2023-02-21T15:58:01.054Z,67.40
2023-02-21T15:59:33.146Z,67.53
2023-02-21T16:01:07.104Z,67.72
2023-02-21T16:02:38.822Z,67.43
2023-02-21T16:04:14.245Z,68.09
2023-02-21T16:05:45.832Z,67.73
2023-02-21T16:07:20.908Z,67.83
2023-02-21T16:08:58.777Z,67.59
2023-02-21T16:10:32.088Z,67.73
2023-02-21T16:12:05.757Z,67.68
2023-02-21T16:13:38.073Z,68.07
2023-02-21T16:15:22.166Z,67.75
2023-02-21T16:16:59.359Z,67.72
2023-02-21T16:18:31.296Z,68.23
2023-02-21T16:20:13.344Z,68.31
2023-02-21T16:21:45.036Z,68.78
2023-02-21T16:23:24.375Z,68.49
2023-02-21T16:25:13.522Z,68.73
2023-02-21T16:27:00.533Z,68.89
2023-02-21T16:28:33.479Z,68.87
2023-02-21T16:30:06.298Z,68.46
2023-02-21T16:31:39.907Z,68.43
2023-02-21T16:33:13.809Z,68.33
2023-02-21T16:34:45.576Z,68.22
2023-02-21T16:36:20.345Z,67.90
2023-02-21T16:37:53.055Z,68.07
2023-02-21T16:39:24.632Z,68.45
2023-02-21T16:40:56.158Z,69.33
2023-02-21T16:42:27.710Z,68.88
2023-02-21T16:44:02.790Z,69.55
2023-02-21T16:45:34.401Z,69.56
2023-02-21T16:47:06.600Z,68.86
2023-02-21T16:48:38.219Z,69.20
2023-02-21T16:50:15.554Z,68.79
2023-02-21T16:51:47.274Z,68.78
2023-02-21T16:53:19.452Z,69.58
2023-02-21T16:54:51.051Z,68.57
2023-02-21T16:56:22.633Z,69.25
2023-02-21T16:57:55.962Z,68.51
2023-02-21T16:59:28.941Z,68.25
2023-02-21T17:01:01.587Z,68.29
2023-02-21T17:02:33.147Z,68.58
2023-02-21T17:04:06.767Z,68.49
2023-02-21T17:05:38.428Z,68.68
2023-02-21T17:07:11.703Z,68.10
2023-02-21T17:08:43.338Z,68.46
2023-02-21T17:10:14.858Z,68.56
2023-02-21T17:11:46.521Z,68.91
2023-02-21T17:13:18.043Z,68.70
2023-02-21T17:14:51.102Z,68.67
2023-02-21T17:16:22.771Z,68.74
2023-02-21T17:17:54.501Z,68.79
2023-02-21T17:19:26.066Z,69.02
2023-02-21T17:20:57.742Z,68.16
2023-02-21T17:22:29.308Z,68.72
2023-02-21T17:24:00.873Z,68.59
2023-02-21T17:25:34.910Z,68.72
2023-02-21T17:27:06.487Z,68.87
2023-02-21T17:28:38.150Z,68.85
2023-02-21T17:30:12.101Z,68.64
2023-02-21T17:31:43.910Z,69.03
2023-02-21T17:33:15.540Z,69.10
2023-02-21T17:34:47.085Z,68.60
2023-02-21T17:36:19.159Z,69.37
2023-02-21T17:37:51.482Z,68.47
2023-02-21T17:39:23.012Z,69.10
2023-02-21T17:40:54.602Z,68.61
2023-02-21T17:42:26.414Z,68.49
2023-02-21T17:43:57.983Z,69.12
2023-02-21T17:45:30.897Z,68.66
2023-02-21T17:47:02.469Z,68.90
2023-02-21T17:48:34.019Z,69.03
2023-02-21T17:50:06.036Z,69.25
2023-02-21T17:51:37.594Z,69.50
2023-02-21T17:53:09.089Z,69.21
2023-02-21T17:54:40.663Z,68.88
2023-02-21T17:56:12.249Z,68.99
2023-02-21T17:57:43.818Z,69.64
2023-02-21T17:59:15.690Z,69.30
2023-02-21T18:00:48.616Z,69.01
2023-02-21T18:02:20.809Z,69.35
2023-02-21T18:03:52.384Z,69.10
2023-02-21T18:05:24.039Z,69.45
2023-02-21T18:06:55.749Z,68.96
2023-02-21T18:08:27.280Z,69.55
2023-02-21T18:09:59.264Z,69.28
2023-02-21T18:11:30.850Z,68.85
2023-02-21T18:13:02.558Z,68.83
2023-02-21T18:14:34.116Z,68.68
2023-02-21T18:16:07.533Z,68.62
2023-02-21T18:17:40.794Z,68.48
2023-02-21T18:19:12.400Z,68.86
2023-02-21T18:20:45.923Z,68.87
2023-02-21T18:22:17.525Z,68.94
2023-02-21T18:23:50.980Z,68.54
2023-02-21T18:25:24.244Z,69.39
2023-02-21T18:26:55.817Z,68.63
2023-02-21T18:28:27.581Z,69.37
2023-02-21T18:29:59.245Z,68.32
2023-02-21T18:31:32.236Z,68.74
2023-02-21T18:33:03.995Z,69.18
2023-02-21T18:34:35.617Z,68.59
2023-02-21T18:36:08.789Z,68.39
2023-02-21T18:37:41.432Z,68.38
2023-02-21T18:39:14.929Z,68.20
2023-02-21T18:40:46.846Z,68.46
2023-02-21T18:42:18.697Z,68.56
2023-02-21T18:43:50.796Z,68.51
2023-02-21T18:45:22.399Z,68.88
2023-02-21T18:46:56.781Z,68.31
2023-02-21T18:48:28.349Z,68.86
2023-02-21T18:49:59.910Z,68.87
2023-02-21T18:51:34.485Z,68.93
2023-02-21T18:53:06.153Z,68.74
2023-02-21T18:54:42.471Z,68.50
2023-02-21T18:56:15.994Z,68.77
2023-02-21T18:57:47.928Z,68.74
2023-02-21T18:59:20.772Z,69.11
2023-02-21T19:00:52.503Z,68.65
2023-02-21T19:02:25.819Z,68.46
2023-02-21T19:03:57.433Z,68.47
2023-02-21T19:05:29.164Z,69.03
2023-02-21T19:07:05.646Z,68.64
2023-02-21T19:08:37.334Z,68.63
2023-02-21T19:10:09.404Z,68.68
2023-02-21T19:11:41.107Z,68.38
2023-02-21T19:13:12.724Z,69.43
2023-02-21T19:14:44.320Z,69.17
2023-02-21T19:16:16.676Z,68.90
2023-02-21T19:17:49.903Z,69.20
2023-02-21T19:19:21.832Z,70.00
2023-02-21T19:20:53.347Z,69.31
2023-02-21T19:22:24.919Z,69.75
2023-02-21T19:23:56.474Z,69.46
2023-02-21T19:25:28.257Z,69.48
2023-02-21T19:26:59.932Z,70.11
2023-02-21T19:28:31.693Z,69.58
2023-02-21T19:30:03.710Z,69.20
2023-02-21T19:31:35.442Z,69.86
2023-02-21T19:33:08.544Z,68.93
2023-02-21T19:34:40.178Z,70.01
2023-02-21T19:36:12.240Z,69.67
2023-02-21T19:37:43.853Z,69.79
2023-02-21T19:39:15.724Z,69.51
2023-02-21T19:40:47.489Z,69.21
2023-02-21T19:42:19.107Z,69.83
2023-02-21T19:43:50.698Z,69.65
2023-02-21T19:45:22.247Z,69.56
2023-02-21T19:46:53.838Z,69.93
2023-02-21T19:48:26.804Z,69.66
2023-02-21T19:49:58.373Z,69.34
2023-02-21T19:51:34.383Z,69.71
2023-02-21T19:53:06.041Z,69.92
2023-02-21T19:54:37.642Z,69.48
2023-02-21T19:56:09.212Z,70.25
2023-02-21T19:57:40.842Z,69.85
2023-02-21T19:59:12.566Z,69.80
2023-02-21T20:00:44.276Z,69.89
2023-02-21T20:02:16.246Z,70.14
2023-02-21T20:03:49.597Z,70.32
2023-02-21T20:05:21.922Z,69.99
2023-02-21T20:06:53.542Z,70.12
2023-02-21T20:08:25.879Z,70.36
2023-02-21T20:09:57.437Z,70.28
2023-02-21T20:11:29.135Z,70.51
2023-02-21T20:13:02.511Z,70.04
2023-02-21T20:14:34.161Z,70.05
2023-02-21T20:16:06.279Z,69.99
2023-02-21T20:17:38.122Z,70.29
2023-02-21T20:19:12.006Z,70.28
2023-02-21T20:20:43.737Z,70.45
2023-02-21T20:22:15.452Z,70.39
2023-02-21T20:23:47.341Z,70.60
2023-02-21T20:25:19.237Z,70.47
2023-02-21T20:26:51.480Z,70.81
2023-02-21T20:28:23.154Z,70.87
2023-02-21T20:29:54.818Z,70.95
2023-02-21T20:31:28.414Z,70.83
2023-02-21T20:33:01.283Z,70.98
2023-02-21T20:34:34.550Z,71.26
2023-02-21T20:36:06.583Z,71.44
2023-02-21T20:37:38.195Z,71.70
2023-02-21T20:39:18.514Z,71.52
2023-02-21T20:40:50.322Z,71.83
2023-02-21T20:42:23.739Z,71.96
2023-02-21T20:43:55.323Z,72.03
2023-02-21T20:45:28.198Z,72.25
2023-02-21T20:47:00.155Z,72.41
2023-02-21T20:48:32.316Z,72.61
2023-02-21T20:50:09.715Z,72.67
2023-02-21T20:51:43.402Z,72.50
2023-02-21T20:53:17.813Z,72.83
2023-02-21T20:54:49.948Z,72.99
2023-02-21T20:56:21.633Z,73.01
2023-02-21T20:57:53.647Z,73.14
2023-02-21T20:59:26.810Z,73.28
2023-02-21T21:00:58.765Z,73.24
2023-02-21T21:02:30.299Z,73.48
2023-02-21T21:04:02.291Z,73.60
2023-02-21T21:05:35.355Z,73.68
2023-02-21T21:07:12.630Z,73.75
2023-02-21T21:08:44.630Z,73.75
2023-02-21T21:10:16.281Z,74.04
2023-02-21T21:11:49.153Z,74.25
2023-02-21T21:13:22.099Z,73.65
2023-02-21T21:14:53.850Z,74.05
2023-02-21T21:16:25.522Z,73.79
2023-02-21T21:17:57.049Z,73.74
2023-02-21T21:19:33.898Z,73.58
2023-02-21T21:21:06.997Z,73.59
2023-02-21T21:22:38.574Z,73.26
2023-02-21T21:24:11.608Z,73.09
2023-02-21T21:25:43.180Z,73.36
2023-02-21T21:27:15.426Z,73.27
2023-02-21T21:28:47.165Z,73.14
2023-02-21T21:30:22.566Z,73.09